Soaring Guidance
Issued by NWS Reno, NV

Home | Current Version | Previous Version | Text Only | Print | Product List | Glossary On
Versions: 1 2 3 4 5 6 7 8 9 10 11 12 13 14 15 16 17
000
UXUS97 KREV 221339
SRGREV

SOARING FORECAST
NATIONAL WEATHER SERVICE - RENO NV
700 AM PDT MON MAY 22 2017

THIS SOARING FORECAST IS FOR THE EASTERN SIERRA AND WESTERN NEVADA
WITH SPECIFIC INDICES FOR THE GREATER RENO AREA.

THIS FORECAST IS PREPARED DAILY BY 700 AM AND IS NOT UPDATED.

FOR CURRENT FLIGHT CONDITIONS...FORECASTS...AND ADVISORIES...ACCESS
YOUR LOCAL BRIEFING OUTLET OR FLIGHT SERVICE STATION.

*******************************************************************
FORECASTED LOCAL INDICES FOR RENO:        TODAY     YESTERDAY
FORECASTED MAX TEMP AT RENO (DEG F).....     86          82
FORECASTED TRIGGER TEMPERATURE (DEG F)..     69          67
   EXCEEDED YESTERDAY BY 955 AM PDT
FORECASTED MAXIMUM ALTITUDE (FT MSL)....  14100       14100
FORECASTED SOARING INDEX (FPM)..........    693         753
FORECASTED K-INDEX.........VALID 18Z....     12          23
FORECASTED K-INDEX.........VALID 00Z....     19          26
FORECASTED LIFTED INDEX....VALID 18Z....      5           4
FORECASTED LIFTED INDEX....VALID 00Z....      4           3

AFTERNOON WINDS ALOFT FORECAST
MSL (FT) WIND/TEMP
9000  9900/+12
10000 9900/+09
12000 9900/+05
14000 9902/+00
16000 9904/-04
18000  1 9/-09
24000 0223/-21
30000 0147/-36
34000 0265/-45
39000 0262/-57

SLIDE MOUNTAIN DATA:
     DATE       TIME     TEMP  DEWPT   RH         WIND (MPH)
                        (F)   (F)           | DIR  SPEED GUST
2017-05-22    05:20      42    29     49    | 046   21   25
2017-05-22    05:00      42    29     48    | 045   23   26
2017-05-22    04:50      43    29     48    | 041   18   25
2017-05-22    04:30      42    30     49    | 038   20   25

RENO TAF FORECAST:
KRNO 221120Z 2212/2312 VRB03KT P6SM SCT200
     FM222000 05007KT P6SM FEW090 FEW200
     FM230200 VRB03KT P6SM SKC

CARSON CITY TAF FORECAST:
KCXP 221120Z 2212/2312 VRB03KT P6SM SCT200
     FM221900 08009KT P6SM FEW080 FEW200
     FM230400 VRB03KT P6SM SKC

OUTLOOK FOR THE RENO-CARSON CITY-MINDEN AREA:
.TUESDAY...SUNNY. HIGHS 85 TO 90. LIGHT WINDS.

SUNRISE AND SUNSET
MAY 22 2017...........SUNRISE   539 AM PDT   SUNSET   813 PM PDT
MAY 23 2017...........SUNRISE   539 AM PDT   SUNSET   814 PM PDT


USA.gov is the U.S. government's official web portal to all federal, state and local government web resources and services.